createdAt,value
2019-01-26T00:02:24.780Z,91350.20
2019-01-26T00:05:02.561Z,91352.79
2019-01-26T00:07:44.135Z,91369.94
2019-01-26T00:10:11.668Z,91373.30
2019-01-26T00:12:46.563Z,91363.95
2019-01-26T00:15:25.619Z,91357.72
2019-01-26T00:18:02.589Z,91362.66
2019-01-26T00:20:36.516Z,91414.84
2019-01-26T00:23:07.712Z,91396.43
2019-01-26T00:25:45.916Z,91401.09
2019-01-26T00:31:48.732Z,91400.03
2019-01-26T00:34:23.970Z,91400.31
2019-01-26T00:37:09.677Z,91404.45
2019-01-26T00:39:45.147Z,91407.31
2019-01-26T00:42:22.314Z,91397.73
2019-01-26T00:44:53.241Z,91393.06
2019-01-26T00:47:24.280Z,91389.12
2019-01-26T00:49:56.079Z,91398.67
2019-01-26T00:52:29.633Z,91396.16
2019-01-26T00:55:02.034Z,91437.20
2019-01-26T00:57:35.230Z,91436.66
2019-01-26T01:00:09.994Z,91426.27
2019-01-26T01:02:57.001Z,91422.62
2019-01-26T01:05:31.165Z,91424.70
2019-01-26T01:08:11.849Z,91412.80
2019-01-26T01:10:56.274Z,91408.38
2019-01-26T01:13:28.175Z,91402.15
2019-01-26T01:16:04.575Z,91403.17
2019-01-26T01:18:32.048Z,91397.73
2019-01-26T01:21:02.815Z,91385.24
2019-01-26T01:23:34.445Z,91383.67
2019-01-26T01:26:05.191Z,91365.78
2019-01-26T01:28:40.929Z,91357.72
2019-01-26T01:31:12.036Z,91356.94
2019-01-26T01:33:48.643Z,91347.89
2019-01-26T01:36:21.855Z,91334.42
2019-01-26T01:38:52.945Z,91318.34
2019-01-26T01:41:24.002Z,91306.64
2019-01-26T01:43:56.366Z,91307.69
2019-01-26T01:46:27.064Z,91305.34
2019-01-26T01:49:02.732Z,91282.50
2019-01-26T01:51:37.653Z,91267.70
2019-01-26T01:54:17.760Z,91250.34
2019-01-26T01:56:48.655Z,91220.94
2019-01-26T01:59:23.989Z,91238.41
2019-01-26T02:01:56.206Z,91230.39
2019-01-26T02:04:28.116Z,91225.73
2019-01-26T02:06:59.469Z,91259.41
2019-01-26T02:09:30.303Z,91285.89
2019-01-26T02:12:03.916Z,91260.98
2019-01-26T02:14:33.751Z,91239.70
2019-01-26T02:17:07.017Z,91217.17
2019-01-26T02:19:39.264Z,91222.84
2019-01-26T02:22:12.500Z,91205.75
2019-01-26T02:24:44.517Z,91203.41
2019-01-26T02:27:15.220Z,91199.53
2019-01-26T02:29:45.881Z,91191.24
2019-01-26T02:32:19.768Z,91188.63
2019-01-26T02:34:51.550Z,91197.97
2019-01-26T02:37:27.331Z,91190.73
2019-01-26T02:39:58.237Z,91187.84
2019-01-26T02:42:29.050Z,91178.73
2019-01-26T02:45:02.436Z,91161.14
2019-01-26T02:47:33.161Z,91167.09
2019-01-26T02:50:05.709Z,91164.00
2019-01-26T02:52:37.822Z,91154.93
2019-01-26T02:55:16.024Z,91173.58
2019-01-26T02:57:50.496Z,91157.51
2019-01-26T03:00:23.765Z,91161.38
2019-01-26T03:02:58.052Z,91160.63
2019-01-26T03:05:28.616Z,91154.14
2019-01-26T03:08:03.734Z,91174.36
2019-01-26T03:10:33.701Z,91155.20
2019-01-26T03:13:05.618Z,91149.49
2019-01-26T03:15:39.359Z,91158.29
2019-01-26T03:18:19.467Z,91163.73
2019-01-26T03:21:04.830Z,91186.31
2019-01-26T03:23:35.440Z,91179.31
2019-01-26T03:26:13.066Z,91149.49
2019-01-26T03:28:41.575Z,91137.30
2019-01-26T03:31:12.298Z,91132.38
2019-01-26T03:33:44.557Z,91125.14
2019-01-26T03:36:16.281Z,91131.08
2019-01-26T03:38:47.022Z,91106.49
2019-01-26T03:41:33.234Z,91121.23
2019-01-26T03:44:17.020Z,91126.66
2019-01-26T03:46:48.017Z,91209.39
2019-01-26T03:49:27.430Z,91182.37
2019-01-26T03:52:01.241Z,91148.17
2019-01-26T03:54:38.853Z,91141.44
2019-01-26T03:57:10.514Z,91151.05
2019-01-26T03:59:47.280Z,91145.08
2019-01-26T04:02:20.766Z,91113.97
2019-01-26T04:04:53.779Z,91105.67
2019-01-26T04:07:24.343Z,91094.54
2019-01-26T04:09:57.401Z,91096.61
2019-01-26T04:12:29.158Z,91105.20
2019-01-26T04:15:02.893Z,91102.83
2019-01-26T04:17:36.465Z,91101.53
2019-01-26T04:20:16.594Z,91085.00
2019-01-26T04:22:50.367Z,91100.52
2019-01-26T04:25:42.117Z,91116.55
2019-01-26T04:28:16.690Z,91101.80
2019-01-26T04:30:47.428Z,91135.23
2019-01-26T04:33:18.010Z,91148.95
2019-01-26T04:35:48.741Z,91156.48
2019-01-26T04:38:19.471Z,91146.37
2019-01-26T04:40:51.723Z,91143.78
2019-01-26T04:43:25.760Z,91126.39
2019-01-26T04:45:59.482Z,91126.39
2019-01-26T04:48:30.611Z,91113.45
2019-01-26T04:51:06.054Z,91112.16
2019-01-26T04:53:47.230Z,91115.02
2019-01-26T04:56:28.831Z,91093.02
2019-01-26T04:59:11.927Z,91098.17
2019-01-26T05:01:45.886Z,91087.55
2019-01-26T05:04:22.940Z,91065.52
2019-01-26T05:06:56.436Z,91041.95
2019-01-26T05:09:34.065Z,91031.06
2019-01-26T05:12:07.439Z,91020.70
2019-01-26T05:14:45.327Z,91011.61
2019-01-26T05:17:15.179Z,90998.17
2019-01-26T05:19:48.348Z,90988.06
2019-01-26T05:22:25.727Z,90973.03
2019-01-26T05:25:02.294Z,90953.66
2019-01-26T05:27:33.167Z,90946.40
2019-01-26T05:30:07.883Z,90951.05
2019-01-26T05:32:48.241Z,90976.69
2019-01-26T05:35:25.806Z,90979.03
2019-01-26T05:38:08.173Z,90990.40
2019-01-26T05:40:44.077Z,90991.45
2019-01-26T05:43:14.718Z,90969.44
2019-01-26T05:45:48.627Z,90960.89
2019-01-26T05:48:20.850Z,90944.84
2019-01-26T05:50:59.828Z,90970.19
2019-01-26T05:53:32.084Z,90969.67
2019-01-26T05:56:13.200Z,90977.17
2019-01-26T05:58:45.560Z,90955.93
2019-01-26T06:01:22.156Z,90940.67
2019-01-26T06:04:11.345Z,90934.22
2019-01-26T06:06:32.846Z,90932.66
2019-01-26T06:09:05.351Z,90914.55
2019-01-26T06:11:43.667Z,90907.33
2019-01-26T06:14:14.661Z,90913.53
2019-01-26T06:16:46.967Z,90912.75
2019-01-26T06:19:23.060Z,90912.24
2019-01-26T06:22:13.827Z,90918.69
2019-01-26T06:24:54.501Z,90927.50
2019-01-26T06:27:35.790Z,90918.69
2019-01-26T06:30:17.062Z,90909.63
2019-01-26T06:32:52.905Z,90906.27
2019-01-26T06:35:33.364Z,90910.92
2019-01-26T06:38:00.253Z,90904.98
2019-01-26T06:40:37.356Z,90899.29
2019-01-26T06:43:08.077Z,90885.31
2019-01-26T06:45:56.350Z,90874.97
2019-01-26T06:48:26.898Z,90854.77
2019-01-26T06:51:03.313Z,90830.97
2019-01-26T06:53:41.874Z,90809.00
2019-01-26T06:59:10.266Z,90791.42
2019-01-26T07:01:45.946Z,90784.44
2019-01-26T07:04:30.515Z,90786.75
2019-01-26T07:07:17.278Z,90769.97
2019-01-26T07:09:49.729Z,90781.35
2019-01-26T07:12:26.713Z,90777.97
2019-01-26T07:15:13.701Z,90771.25
2019-01-26T07:17:51.192Z,90759.09
2019-01-26T07:20:30.036Z,90737.88
2019-01-26T07:23:01.562Z,90738.13
2019-01-26T07:25:40.496Z,90723.13
2019-01-26T07:28:22.657Z,90739.17
2019-01-26T07:31:03.380Z,90747.71
2019-01-26T07:33:34.200Z,90737.62
2019-01-26T07:36:16.737Z,90766.82
2019-01-26T07:38:57.204Z,90798.12
2019-01-26T07:41:31.652Z,90891.02
2019-01-26T07:44:08.121Z,90934.22
2019-01-26T07:46:53.783Z,90997.91
2019-01-26T07:49:27.434Z,91007.74
2019-01-26T07:52:00.380Z,91073.53
2019-01-26T07:54:35.777Z,91097.91
2019-01-26T07:57:13.651Z,91130.03
2019-01-26T07:59:56.951Z,91129.25
2019-01-26T08:02:38.422Z,91156.22
2019-01-26T08:05:28.587Z,91144.27
2019-01-26T08:08:05.549Z,91207.05
2019-01-26T08:10:36.270Z,91247.72
2019-01-26T08:13:17.712Z,91222.57
2019-01-26T08:15:58.707Z,91257.30
2019-01-26T08:18:37.344Z,91305.85
2019-01-26T08:21:16.757Z,91267.95
2019-01-26T08:24:05.547Z,91294.63
2019-01-26T08:26:25.244Z,91328.39
2019-01-26T08:28:59.323Z,91332.81
2019-01-26T08:31:33.298Z,91341.12
2019-01-26T08:34:09.325Z,91342.95
2019-01-26T08:36:49.723Z,91344.76
2019-01-26T08:39:23.687Z,91320.37
2019-01-26T08:41:55.202Z,91328.39
2019-01-26T08:44:25.930Z,91335.16
2019-01-26T08:46:56.689Z,91282.46
2019-01-26T08:49:31.299Z,91296.50
2019-01-26T08:52:16.938Z,91242.28
2019-01-26T08:58:01.799Z,91239.16
2019-01-26T09:00:47.189Z,91219.48
2019-01-26T09:03:41.112Z,91218.42
2019-01-26T09:06:27.499Z,91200.82
2019-01-26T09:09:06.525Z,91179.52
2019-01-26T09:11:46.016Z,91141.95
2019-01-26T09:14:18.800Z,91168.11
2019-01-26T09:17:03.586Z,91207.55
2019-01-26T09:19:44.726Z,91245.92
2019-01-26T09:22:19.483Z,91244.86
2019-01-26T09:25:03.155Z,91222.57
2019-01-26T09:27:41.845Z,91204.97
2019-01-26T09:30:37.341Z,91184.17
2019-01-26T09:33:20.018Z,91204.70
2019-01-26T09:35:58.595Z,91261.17
2019-01-26T09:38:34.975Z,91290.48
2019-01-26T09:41:21.165Z,91284.77
2019-01-26T09:44:03.785Z,91299.08
2019-01-26T09:46:46.656Z,91344.48
2019-01-26T09:49:19.431Z,91371.70
2019-01-26T09:52:03.784Z,91385.71
2019-01-26T09:54:42.411Z,91437.91
2019-01-26T09:57:29.916Z,91518.44
2019-01-26T10:00:06.014Z,91525.18
2019-01-26T10:02:47.291Z,91483.06
2019-01-26T10:05:39.335Z,91490.08
2019-01-26T10:08:18.836Z,91548.30
2019-01-26T10:11:09.385Z,91617.45
2019-01-26T10:13:51.683Z,91562.02
2019-01-26T10:16:35.533Z,91634.63
2019-01-26T10:19:08.480Z,91680.63
2019-01-26T10:21:42.483Z,91658.27
2019-01-26T10:28:00.692Z,91678.78
2019-01-26T10:33:37.950Z,91750.62
2019-01-26T10:37:10.671Z,91752.94
2019-01-26T10:39:45.436Z,91755.52
2019-01-26T10:42:55.729Z,91718.09
2019-01-26T10:45:36.469Z,91681.38
2019-01-26T10:48:52.643Z,91793.01
2019-01-26T10:52:00.104Z,91799.25
2019-01-26T10:54:42.395Z,91850.52
2019-01-26T10:57:28.694Z,91864.85
2019-01-26T11:00:08.862Z,91915.88
2019-01-26T11:02:58.095Z,91929.97
2019-01-26T11:05:38.697Z,91977.87
2019-01-26T11:08:18.334Z,92131.97
2019-01-26T11:11:03.188Z,92243.38
2019-01-26T11:16:32.490Z,93362.83
2019-01-26T11:22:34.325Z,94441.83
2019-01-26T11:25:42.332Z,94554.55
2019-01-26T11:32:42.797Z,94031.41
2019-01-26T11:39:32.498Z,93174.63
2019-01-26T12:09:21.024Z,92967.30
2019-01-26T12:12:13.311Z,92798.04
2019-01-26T12:35:37.287Z,92180.13
2019-01-26T12:44:57.618Z,92215.08
2019-01-26T13:04:29.361Z,91930.35
2019-01-26T13:14:48.530Z,91633.98
2019-01-26T14:11:36.032Z,91545.12
2019-01-26T14:38:30.341Z,91451.06
2019-01-26T14:50:26.864Z,91498.58
2019-01-26T14:53:06.161Z,91459.64
2019-01-26T15:02:42.621Z,91478.55
2019-01-26T15:05:54.681Z,91472.37
2019-01-26T15:14:38.382Z,91510.77
2019-01-26T15:23:57.362Z,91482.75
2019-01-26T15:27:21.691Z,91503.52
2019-01-26T15:30:44.292Z,91539.63
2019-01-26T15:33:45.281Z,91482.98
2019-01-26T15:53:38.658Z,91495.21
2019-01-26T16:04:52.472Z,91519.62
2019-01-26T16:07:55.066Z,91534.97
2019-01-26T16:27:17.319Z,91498.58
2019-01-26T16:58:45.941Z,91325.46
2019-01-26T17:05:12.473Z,91209.78
2019-01-26T17:08:23.408Z,91185.39
2019-01-26T17:11:35.123Z,91195.75
2019-01-26T17:15:49.257Z,91228.95
2019-01-26T17:23:42.006Z,91364.41
2019-01-26T17:25:59.635Z,91420.44
2019-01-26T17:28:33.286Z,91365.97
2019-01-26T17:31:48.995Z,91362.33
2019-01-26T17:55:13.976Z,91380.42
2019-01-26T18:05:03.355Z,91440.17
2019-01-26T18:09:55.923Z,91466.38
2019-01-26T18:19:41.128Z,91424.08
2019-01-26T18:26:20.383Z,91486.39
2019-01-26T18:43:31.930Z,91480.67
2019-01-26T18:52:54.490Z,91514.45
2019-01-26T18:56:16.658Z,91537.55
2019-01-26T18:59:42.377Z,91514.17
2019-01-26T19:19:30.891Z,91482.98
2019-01-26T19:26:07.224Z,91481.97
2019-01-26T19:31:45.893Z,91461.20
2019-01-26T19:44:25.191Z,91466.92
2019-01-26T19:48:26.926Z,91451.06
2019-01-26T19:51:12.700Z,91458.30
2019-01-26T20:12:54.244Z,91418.84
2019-01-26T20:35:01.816Z,91479.58
2019-01-26T20:42:05.031Z,91529.25
2019-01-26T20:48:33.769Z,91543.79
2019-01-26T20:51:46.192Z,91553.70
2019-01-26T20:54:32.512Z,91526.87
2019-01-26T20:57:33.414Z,91511.31
2019-01-26T21:01:02.268Z,91498.34
2019-01-26T21:16:46.784Z,91473.11
2019-01-26T21:22:42.869Z,91498.58
2019-01-26T21:25:56.839Z,91502.73
2019-01-26T21:36:48.749Z,91475.97
2019-01-26T21:40:12.241Z,91440.91
2019-01-26T21:47:39.926Z,91428.23
2019-01-26T21:48:44.231Z,91411.55
2019-01-26T21:51:17.578Z,91425.09
2019-01-26T22:03:45.461Z,91450.28
2019-01-26T22:07:37.200Z,91444.55
2019-01-26T22:14:12.818Z,91424.82
2019-01-26T22:23:08.431Z,91373.95
2019-01-26T22:33:00.649Z,91371.38
2019-01-26T22:36:18.671Z,91363.34
2019-01-26T22:39:20.666Z,91365.66
2019-01-26T22:42:16.689Z,91371.38
2019-01-26T22:46:14.390Z,91359.66
2019-01-26T23:00:19.821Z,91393.11
2019-01-26T23:03:27.829Z,91374.97
2019-01-26T23:10:53.659Z,91447.14
2019-01-26T23:14:49.256Z,91450.51
2019-01-26T23:18:21.229Z,91493.13
2019-01-26T23:29:28.791Z,91535.72
2019-01-26T23:32:44.716Z,91514.41
2019-01-26T23:35:43.915Z,91536.50
2019-01-26T23:46:32.985Z,91477.81
2019-01-26T23:49:34.205Z,91480.13
2019-01-26T23:52:45.932Z,91469.74
2019-01-26T23:55:31.399Z,91417.78
2019-01-26T23:58:14.576Z,91431.05
